sensor_id;sensor_type;location;lat;lon;timestamp;P1;durP1;ratioP1;P2;durP2;ratioP2
13764;SDS011;6953;48.810;9.204;2022-12-11T00:01:17;0.87;;;0.87;;
13764;SDS011;6953;48.810;9.204;2022-12-11T00:03:45;0.80;;;0.80;;
13764;SDS011;6953;48.810;9.204;2022-12-11T00:06:12;1.00;;;1.00;;
13764;SDS011;6953;48.810;9.204;2022-12-11T00:08:40;0.90;;;0.90;;
13764;SDS011;6953;48.810;9.204;2022-12-11T00:11:09;0.87;;;0.87;;
13764;SDS011;6953;48.810;9.204;2022-12-11T00:13:37;0.90;;;0.90;;
13764;SDS011;6953;48.810;9.204;2022-12-11T00:16:02;1.00;;;1.00;;
13764;SDS011;6953;48.810;9.204;2022-12-11T00:18:28;0.90;;;0.90;;
13764;SDS011;6953;48.810;9.204;2022-12-11T00:20:54;0.80;;;0.80;;
13764;SDS011;6953;48.810;9.204;2022-12-11T00:23:19;1.00;;;1.00;;
13764;SDS011;6953;48.810;9.204;2022-12-11T00:25:45;1.00;;;1.00;;
13764;SDS011;6953;48.810;9.204;2022-12-11T00:28:13;0.90;;;0.90;;
13764;SDS011;6953;48.810;9.204;2022-12-11T00:30:40;1.00;;;1.00;;
13764;SDS011;6953;48.810;9.204;2022-12-11T00:33:06;0.90;;;0.90;;
13764;SDS011;6953;48.810;9.204;2022-12-11T00:35:36;0.90;;;0.90;;
13764;SDS011;6953;48.810;9.204;2022-12-11T00:38:03;0.90;;;0.90;;
13764;SDS011;6953;48.810;9.204;2022-12-11T00:40:28;0.90;;;0.90;;
13764;SDS011;6953;48.810;9.204;2022-12-11T00:42:54;0.80;;;0.80;;
13764;SDS011;6953;48.810;9.204;2022-12-11T00:45:19;0.90;;;0.90;;
13764;SDS011;6953;48.810;9.204;2022-12-11T00:47:44;0.80;;;0.80;;
13764;SDS011;6953;48.810;9.204;2022-12-11T00:50:10;0.83;;;0.83;;
13764;SDS011;6953;48.810;9.204;2022-12-11T00:52:36;0.90;;;0.90;;
13764;SDS011;6953;48.810;9.204;2022-12-11T00:55:02;0.90;;;0.90;;
13764;SDS011;6953;48.810;9.204;2022-12-11T00:57:27;1.00;;;1.00;;
13764;SDS011;6953;48.810;9.204;2022-12-11T00:59:52;0.90;;;0.90;;
13764;SDS011;6953;48.810;9.204;2022-12-11T01:02:18;0.87;;;0.87;;
13764;SDS011;6953;48.810;9.204;2022-12-11T01:04:43;1.00;;;1.00;;
13764;SDS011;6953;48.810;9.204;2022-12-11T01:07:08;0.70;;;0.70;;
13764;SDS011;6953;48.810;9.204;2022-12-11T01:09:34;0.90;;;0.90;;
13764;SDS011;6953;48.810;9.204;2022-12-11T01:12:17;0.90;;;0.90;;
13764;SDS011;6953;48.810;9.204;2022-12-11T01:14:43;0.70;;;0.70;;
13764;SDS011;6953;48.810;9.204;2022-12-11T01:17:08;0.70;;;0.70;;
13764;SDS011;6953;48.810;9.204;2022-12-11T01:19:33;0.80;;;0.80;;
13764;SDS011;6953;48.810;9.204;2022-12-11T01:21:59;0.77;;;0.77;;
13764;SDS011;6953;48.810;9.204;2022-12-11T01:24:24;0.77;;;0.77;;
13764;SDS011;6953;48.810;9.204;2022-12-11T01:26:50;0.80;;;0.80;;
13764;SDS011;6953;48.810;9.204;2022-12-11T01:29:15;0.83;;;0.83;;
13764;SDS011;6953;48.810;9.204;2022-12-11T01:31:40;0.90;;;0.90;;
13764;SDS011;6953;48.810;9.204;2022-12-11T01:34:06;0.80;;;0.80;;
13764;SDS011;6953;48.810;9.204;2022-12-11T01:36:31;0.90;;;0.90;;
13764;SDS011;6953;48.810;9.204;2022-12-11T01:38:56;0.70;;;0.70;;
13764;SDS011;6953;48.810;9.204;2022-12-11T01:41:22;0.80;;;0.80;;
13764;SDS011;6953;48.810;9.204;2022-12-11T01:46:39;0.80;;;0.80;;
13764;SDS011;6953;48.810;9.204;2022-12-11T01:49:06;0.77;;;0.77;;
13764;SDS011;6953;48.810;9.204;2022-12-11T01:51:36;0.70;;;0.70;;
13764;SDS011;6953;48.810;9.204;2022-12-11T01:54:07;0.80;;;0.80;;
13764;SDS011;6953;48.810;9.204;2022-12-11T01:56:35;0.80;;;0.80;;
13764;SDS011;6953;48.810;9.204;2022-12-11T01:59:02;0.70;;;0.70;;
13764;SDS011;6953;48.810;9.204;2022-12-11T02:01:42;0.70;;;0.70;;
13764;SDS011;6953;48.810;9.204;2022-12-11T02:04:33;0.70;;;0.70;;
13764;SDS011;6953;48.810;9.204;2022-12-11T02:07:01;0.63;;;0.63;;
13764;SDS011;6953;48.810;9.204;2022-12-11T02:09:30;0.70;;;0.70;;
13764;SDS011;6953;48.810;9.204;2022-12-11T02:12:01;0.70;;;0.70;;
13764;SDS011;6953;48.810;9.204;2022-12-11T02:14:41;0.80;;;0.80;;
13764;SDS011;6953;48.810;9.204;2022-12-11T02:20:26;0.70;;;0.70;;
13764;SDS011;6953;48.810;9.204;2022-12-11T02:25:46;0.80;;;0.80;;
13764;SDS011;6953;48.810;9.204;2022-12-11T02:31:16;0.70;;;0.70;;
13764;SDS011;6953;48.810;9.204;2022-12-11T02:33:47;0.60;;;0.60;;
13764;SDS011;6953;48.810;9.204;2022-12-11T02:36:18;0.80;;;0.80;;
13764;SDS011;6953;48.810;9.204;2022-12-11T02:38:47;0.70;;;0.70;;
13764;SDS011;6953;48.810;9.204;2022-12-11T02:41:16;0.70;;;0.70;;
13764;SDS011;6953;48.810;9.204;2022-12-11T02:43:44;0.80;;;0.80;;
13764;SDS011;6953;48.810;9.204;2022-12-11T02:46:12;0.70;;;0.70;;
13764;SDS011;6953;48.810;9.204;2022-12-11T02:48:40;0.70;;;0.70;;
13764;SDS011;6953;48.810;9.204;2022-12-11T02:51:06;0.80;;;0.80;;
13764;SDS011;6953;48.810;9.204;2022-12-11T02:53:35;0.70;;;0.70;;
13764;SDS011;6953;48.810;9.204;2022-12-11T02:56:08;0.80;;;0.80;;
13764;SDS011;6953;48.810;9.204;2022-12-11T02:58:37;0.80;;;0.80;;
13764;SDS011;6953;48.810;9.204;2022-12-11T03:01:09;0.80;;;0.80;;
13764;SDS011;6953;48.810;9.204;2022-12-11T03:03:35;0.90;;;0.90;;
13764;SDS011;6953;48.810;9.204;2022-12-11T03:06:00;0.80;;;0.80;;
13764;SDS011;6953;48.810;9.204;2022-12-11T03:08:26;0.90;;;0.90;;
13764;SDS011;6953;48.810;9.204;2022-12-11T03:10:51;0.70;;;0.70;;
13764;SDS011;6953;48.810;9.204;2022-12-11T03:13:18;0.70;;;0.70;;
13764;SDS011;6953;48.810;9.204;2022-12-11T03:15:58;0.80;;;0.80;;
13764;SDS011;6953;48.810;9.204;2022-12-11T03:18:38;0.80;;;0.80;;
13764;SDS011;6953;48.810;9.204;2022-12-11T03:26:27;0.80;;;0.80;;
13764;SDS011;6953;48.810;9.204;2022-12-11T03:29:01;0.80;;;0.80;;
13764;SDS011;6953;48.810;9.204;2022-12-11T03:31:36;0.80;;;0.80;;
13764;SDS011;6953;48.810;9.204;2022-12-11T03:34:11;0.87;;;0.87;;
13764;SDS011;6953;48.810;9.204;2022-12-11T03:36:42;0.70;;;0.70;;
13764;SDS011;6953;48.810;9.204;2022-12-11T03:39:13;0.70;;;0.70;;
13764;SDS011;6953;48.810;9.204;2022-12-11T03:41:43;0.80;;;0.80;;
13764;SDS011;6953;48.810;9.204;2022-12-11T03:44:11;0.80;;;0.80;;
13764;SDS011;6953;48.810;9.204;2022-12-11T03:46:38;0.80;;;0.80;;
13764;SDS011;6953;48.810;9.204;2022-12-11T03:49:09;0.90;;;0.90;;
13764;SDS011;6953;48.810;9.204;2022-12-11T03:51:40;0.90;;;0.90;;
13764;SDS011;6953;48.810;9.204;2022-12-11T03:54:06;0.90;;;0.90;;
13764;SDS011;6953;48.810;9.204;2022-12-11T03:56:32;1.00;;;1.00;;
13764;SDS011;6953;48.810;9.204;2022-12-11T03:58:59;0.73;;;0.73;;
13764;SDS011;6953;48.810;9.204;2022-12-11T04:01:25;0.70;;;0.70;;
13764;SDS011;6953;48.810;9.204;2022-12-11T04:03:51;0.80;;;0.80;;
13764;SDS011;6953;48.810;9.204;2022-12-11T04:06:16;0.80;;;0.80;;
13764;SDS011;6953;48.810;9.204;2022-12-11T04:08:42;0.90;;;0.90;;
13764;SDS011;6953;48.810;9.204;2022-12-11T04:11:07;0.90;;;0.90;;
13764;SDS011;6953;48.810;9.204;2022-12-11T04:13:52;0.90;;;0.90;;
13764;SDS011;6953;48.810;9.204;2022-12-11T04:16:56;0.83;;;0.83;;
13764;SDS011;6953;48.810;9.204;2022-12-11T04:19:23;1.00;;;1.00;;
13764;SDS011;6953;48.810;9.204;2022-12-11T04:22:08;0.83;;;0.83;;
13764;SDS011;6953;48.810;9.204;2022-12-11T04:24:56;0.83;;;0.83;;
13764;SDS011;6953;48.810;9.204;2022-12-11T04:27:21;0.80;;;0.80;;
13764;SDS011;6953;48.810;9.204;2022-12-11T04:30:07;0.80;;;0.80;;
13764;SDS011;6953;48.810;9.204;2022-12-11T04:32:35;0.90;;;0.90;;
13764;SDS011;6953;48.810;9.204;2022-12-11T04:35:01;0.80;;;0.80;;
13764;SDS011;6953;48.810;9.204;2022-12-11T04:37:27;0.80;;;0.80;;
13764;SDS011;6953;48.810;9.204;2022-12-11T04:39:52;1.00;;;1.00;;
13764;SDS011;6953;48.810;9.204;2022-12-11T04:42:18;0.87;;;0.87;;
13764;SDS011;6953;48.810;9.204;2022-12-11T04:44:43;0.90;;;0.90;;
13764;SDS011;6953;48.810;9.204;2022-12-11T04:47:08;0.90;;;0.90;;
13764;SDS011;6953;48.810;9.204;2022-12-11T04:49:34;0.80;;;0.80;;
13764;SDS011;6953;48.810;9.204;2022-12-11T04:51:59;0.90;;;0.90;;
13764;SDS011;6953;48.810;9.204;2022-12-11T04:54:25;0.90;;;0.90;;
13764;SDS011;6953;48.810;9.204;2022-12-11T04:56:50;0.90;;;0.90;;
13764;SDS011;6953;48.810;9.204;2022-12-11T04:59:15;0.90;;;0.90;;
13764;SDS011;6953;48.810;9.204;2022-12-11T05:01:41;0.80;;;0.80;;
13764;SDS011;6953;48.810;9.204;2022-12-11T05:04:06;0.90;;;0.90;;
13764;SDS011;6953;48.810;9.204;2022-12-11T05:06:32;0.90;;;0.90;;
13764;SDS011;6953;48.810;9.204;2022-12-11T05:08:57;0.83;;;0.83;;
13764;SDS011;6953;48.810;9.204;2022-12-11T05:11:22;0.90;;;0.90;;
13764;SDS011;6953;48.810;9.204;2022-12-11T05:13:48;0.90;;;0.90;;
13764;SDS011;6953;48.810;9.204;2022-12-11T05:16:14;0.90;;;0.90;;
13764;SDS011;6953;48.810;9.204;2022-12-11T05:18:40;1.00;;;1.00;;
13764;SDS011;6953;48.810;9.204;2022-12-11T05:21:07;0.90;;;0.90;;
13764;SDS011;6953;48.810;9.204;2022-12-11T05:23:34;0.90;;;0.90;;
13764;SDS011;6953;48.810;9.204;2022-12-11T05:26:04;0.90;;;0.90;;
13764;SDS011;6953;48.810;9.204;2022-12-11T05:28:41;0.90;;;0.90;;
13764;SDS011;6953;48.810;9.204;2022-12-11T05:31:09;0.90;;;0.90;;
13764;SDS011;6953;48.810;9.204;2022-12-11T05:33:39;0.90;;;0.90;;
13764;SDS011;6953;48.810;9.204;2022-12-11T05:36:05;0.80;;;0.80;;
13764;SDS011;6953;48.810;9.204;2022-12-11T05:38:31;0.93;;;0.93;;
13764;SDS011;6953;48.810;9.204;2022-12-11T05:40:58;0.90;;;0.90;;
13764;SDS011;6953;48.810;9.204;2022-12-11T05:43:25;1.00;;;1.00;;
13764;SDS011;6953;48.810;9.204;2022-12-11T05:45:52;0.90;;;0.90;;
13764;SDS011;6953;48.810;9.204;2022-12-11T05:48:18;1.00;;;1.00;;
13764;SDS011;6953;48.810;9.204;2022-12-11T05:50:43;0.80;;;0.80;;
13764;SDS011;6953;48.810;9.204;2022-12-11T05:53:09;1.00;;;1.00;;
13764;SDS011;6953;48.810;9.204;2022-12-11T05:55:35;0.90;;;0.90;;
13764;SDS011;6953;48.810;9.204;2022-12-11T05:58:01;0.80;;;0.80;;
13764;SDS011;6953;48.810;9.204;2022-12-11T06:00:26;0.90;;;0.90;;
13764;SDS011;6953;48.810;9.204;2022-12-11T06:02:51;0.90;;;0.90;;
13764;SDS011;6953;48.810;9.204;2022-12-11T06:05:17;0.90;;;0.90;;
13764;SDS011;6953;48.810;9.204;2022-12-11T06:07:42;0.90;;;0.90;;
13764;SDS011;6953;48.810;9.204;2022-12-11T06:10:08;0.90;;;0.90;;
13764;SDS011;6953;48.810;9.204;2022-12-11T06:12:33;0.97;;;0.97;;
13764;SDS011;6953;48.810;9.204;2022-12-11T06:14:59;0.90;;;0.90;;
13764;SDS011;6953;48.810;9.204;2022-12-11T06:17:24;0.90;;;0.90;;
13764;SDS011;6953;48.810;9.204;2022-12-11T06:19:50;1.10;;;1.10;;
13764;SDS011;6953;48.810;9.204;2022-12-11T06:22:15;1.00;;;1.00;;
13764;SDS011;6953;48.810;9.204;2022-12-11T06:24:40;1.00;;;1.00;;
13764;SDS011;6953;48.810;9.204;2022-12-11T06:27:06;1.10;;;1.10;;
13764;SDS011;6953;48.810;9.204;2022-12-11T06:29:31;1.00;;;1.00;;
13764;SDS011;6953;48.810;9.204;2022-12-11T06:31:56;1.00;;;1.00;;
13764;SDS011;6953;48.810;9.204;2022-12-11T06:34:22;0.90;;;0.90;;
13764;SDS011;6953;48.810;9.204;2022-12-11T06:36:47;1.10;;;1.10;;
13764;SDS011;6953;48.810;9.204;2022-12-11T06:39:12;0.80;;;0.80;;
13764;SDS011;6953;48.810;9.204;2022-12-11T06:41:38;0.90;;;0.90;;
13764;SDS011;6953;48.810;9.204;2022-12-11T06:44:03;0.90;;;0.90;;
13764;SDS011;6953;48.810;9.204;2022-12-11T06:46:28;0.80;;;0.80;;
13764;SDS011;6953;48.810;9.204;2022-12-11T06:48:54;0.80;;;0.80;;
13764;SDS011;6953;48.810;9.204;2022-12-11T06:51:20;0.90;;;0.90;;
13764;SDS011;6953;48.810;9.204;2022-12-11T06:53:50;0.90;;;0.90;;
13764;SDS011;6953;48.810;9.204;2022-12-11T06:56:17;1.00;;;1.00;;
13764;SDS011;6953;48.810;9.204;2022-12-11T06:58:42;0.90;;;0.90;;
13764;SDS011;6953;48.810;9.204;2022-12-11T07:01:24;0.80;;;0.80;;
13764;SDS011;6953;48.810;9.204;2022-12-11T07:03:55;0.80;;;0.80;;
13764;SDS011;6953;48.810;9.204;2022-12-11T07:06:22;1.10;;;1.10;;
13764;SDS011;6953;48.810;9.204;2022-12-11T07:08:48;0.90;;;0.90;;
13764;SDS011;6953;48.810;9.204;2022-12-11T07:11:14;0.90;;;0.90;;
13764;SDS011;6953;48.810;9.204;2022-12-11T07:13:40;1.00;;;1.00;;
13764;SDS011;6953;48.810;9.204;2022-12-11T07:16:06;1.00;;;1.00;;
13764;SDS011;6953;48.810;9.204;2022-12-11T07:18:36;0.90;;;0.90;;
13764;SDS011;6953;48.810;9.204;2022-12-11T07:21:02;0.90;;;0.90;;
13764;SDS011;6953;48.810;9.204;2022-12-11T07:23:28;0.90;;;0.90;;
13764;SDS011;6953;48.810;9.204;2022-12-11T07:25:54;0.90;;;0.90;;
13764;SDS011;6953;48.810;9.204;2022-12-11T07:28:20;0.90;;;0.90;;
13764;SDS011;6953;48.810;9.204;2022-12-11T07:30:46;0.93;;;0.93;;
13764;SDS011;6953;48.810;9.204;2022-12-11T07:33:12;0.80;;;0.80;;
13764;SDS011;6953;48.810;9.204;2022-12-11T07:35:37;0.90;;;0.90;;
13764;SDS011;6953;48.810;9.204;2022-12-11T07:38:03;0.83;;;0.83;;
13764;SDS011;6953;48.810;9.204;2022-12-11T07:40:28;0.80;;;0.80;;
13764;SDS011;6953;48.810;9.204;2022-12-11T07:42:54;0.80;;;0.80;;
13764;SDS011;6953;48.810;9.204;2022-12-11T07:45:19;0.80;;;0.80;;
13764;SDS011;6953;48.810;9.204;2022-12-11T07:47:45;0.80;;;0.80;;
13764;SDS011;6953;48.810;9.204;2022-12-11T07:50:10;0.70;;;0.70;;
13764;SDS011;6953;48.810;9.204;2022-12-11T07:52:35;0.80;;;0.80;;
13764;SDS011;6953;48.810;9.204;2022-12-11T07:55:01;0.70;;;0.70;;
13764;SDS011;6953;48.810;9.204;2022-12-11T07:57:26;0.73;;;0.73;;
13764;SDS011;6953;48.810;9.204;2022-12-11T07:59:52;0.80;;;0.80;;
13764;SDS011;6953;48.810;9.204;2022-12-11T08:02:18;0.80;;;0.80;;
13764;SDS011;6953;48.810;9.204;2022-12-11T08:04:43;0.90;;;0.90;;
13764;SDS011;6953;48.810;9.204;2022-12-11T08:07:08;0.70;;;0.70;;
13764;SDS011;6953;48.810;9.204;2022-12-11T08:09:34;0.80;;;0.80;;
13764;SDS011;6953;48.810;9.204;2022-12-11T08:11:59;0.70;;;0.70;;
13764;SDS011;6953;48.810;9.204;2022-12-11T08:14:24;0.80;;;0.80;;
13764;SDS011;6953;48.810;9.204;2022-12-11T08:16:50;0.87;;;0.87;;
13764;SDS011;6953;48.810;9.204;2022-12-11T08:19:15;0.80;;;0.80;;
13764;SDS011;6953;48.810;9.204;2022-12-11T08:21:42;0.80;;;0.80;;
13764;SDS011;6953;48.810;9.204;2022-12-11T08:24:08;0.80;;;0.80;;
13764;SDS011;6953;48.810;9.204;2022-12-11T08:26:34;0.77;;;0.77;;
13764;SDS011;6953;48.810;9.204;2022-12-11T08:28:59;0.70;;;0.70;;
13764;SDS011;6953;48.810;9.204;2022-12-11T08:31:26;0.80;;;0.80;;
13764;SDS011;6953;48.810;9.204;2022-12-11T08:33:53;0.80;;;0.80;;
13764;SDS011;6953;48.810;9.204;2022-12-11T08:36:19;0.80;;;0.80;;
13764;SDS011;6953;48.810;9.204;2022-12-11T08:38:46;0.80;;;0.80;;
13764;SDS011;6953;48.810;9.204;2022-12-11T08:41:13;0.70;;;0.70;;
13764;SDS011;6953;48.810;9.204;2022-12-11T08:43:40;0.80;;;0.80;;
13764;SDS011;6953;48.810;9.204;2022-12-11T08:46:06;0.80;;;0.80;;
13764;SDS011;6953;48.810;9.204;2022-12-11T08:48:33;0.80;;;0.80;;
13764;SDS011;6953;48.810;9.204;2022-12-11T08:51:00;0.80;;;0.80;;
13764;SDS011;6953;48.810;9.204;2022-12-11T08:53:29;0.70;;;0.70;;
13764;SDS011;6953;48.810;9.204;2022-12-11T08:56:06;0.80;;;0.80;;
13764;SDS011;6953;48.810;9.204;2022-12-11T08:58:34;0.80;;;0.80;;
13764;SDS011;6953;48.810;9.204;2022-12-11T09:01:04;0.70;;;0.70;;
13764;SDS011;6953;48.810;9.204;2022-12-11T09:03:30;0.80;;;0.80;;
13764;SDS011;6953;48.810;9.204;2022-12-11T09:05:56;0.80;;;0.80;;
13764;SDS011;6953;48.810;9.204;2022-12-11T09:08:21;0.80;;;0.80;;
13764;SDS011;6953;48.810;9.204;2022-12-11T09:10:46;0.70;;;0.70;;
13764;SDS011;6953;48.810;9.204;2022-12-11T09:13:12;0.70;;;0.70;;
13764;SDS011;6953;48.810;9.204;2022-12-11T09:15:39;0.80;;;0.80;;
13764;SDS011;6953;48.810;9.204;2022-12-11T09:18:05;0.80;;;0.80;;
13764;SDS011;6953;48.810;9.204;2022-12-11T09:20:30;0.80;;;0.80;;
13764;SDS011;6953;48.810;9.204;2022-12-11T09:22:55;0.80;;;0.80;;
13764;SDS011;6953;48.810;9.204;2022-12-11T09:25:21;0.70;;;0.70;;
13764;SDS011;6953;48.810;9.204;2022-12-11T09:27:46;0.70;;;0.70;;
13764;SDS011;6953;48.810;9.204;2022-12-11T09:30:12;0.80;;;0.80;;
13764;SDS011;6953;48.810;9.204;2022-12-11T09:32:37;0.60;;;0.60;;
13764;SDS011;6953;48.810;9.204;2022-12-11T09:35:03;0.80;;;0.80;;
13764;SDS011;6953;48.810;9.204;2022-12-11T09:37:29;0.80;;;0.80;;
13764;SDS011;6953;48.810;9.204;2022-12-11T09:39:55;0.80;;;0.80;;
13764;SDS011;6953;48.810;9.204;2022-12-11T09:42:24;0.80;;;0.80;;
13764;SDS011;6953;48.810;9.204;2022-12-11T09:45:00;0.70;;;0.70;;
13764;SDS011;6953;48.810;9.204;2022-12-11T09:47:32;0.70;;;0.70;;
13764;SDS011;6953;48.810;9.204;2022-12-11T09:50:04;0.70;;;0.70;;
13764;SDS011;6953;48.810;9.204;2022-12-11T09:55:19;0.70;;;0.70;;
13764;SDS011;6953;48.810;9.204;2022-12-11T09:57:52;0.60;;;0.60;;
13764;SDS011;6953;48.810;9.204;2022-12-11T10:00:20;0.60;;;0.60;;
13764;SDS011;6953;48.810;9.204;2022-12-11T10:02:56;0.70;;;0.70;;
13764;SDS011;6953;48.810;9.204;2022-12-11T10:05:46;0.70;;;0.70;;
13764;SDS011;6953;48.810;9.204;2022-12-11T10:13:39;0.60;;;0.60;;
13764;SDS011;6953;48.810;9.204;2022-12-11T10:18:38;0.60;;;0.60;;
13764;SDS011;6953;48.810;9.204;2022-12-11T10:21:04;0.70;;;0.70;;
13764;SDS011;6953;48.810;9.204;2022-12-11T10:23:37;0.60;;;0.60;;
13764;SDS011;6953;48.810;9.204;2022-12-11T10:26:23;0.60;;;0.60;;
13764;SDS011;6953;48.810;9.204;2022-12-11T10:28:48;0.80;;;0.80;;
13764;SDS011;6953;48.810;9.204;2022-12-11T10:36:36;0.60;;;0.60;;
13764;SDS011;6953;48.810;9.204;2022-12-11T10:39:09;0.70;;;0.70;;
13764;SDS011;6953;48.810;9.204;2022-12-11T10:41:45;0.50;;;0.50;;
13764;SDS011;6953;48.810;9.204;2022-12-11T10:44:18;0.70;;;0.70;;
13764;SDS011;6953;48.810;9.204;2022-12-11T10:49:31;0.63;;;0.63;;
13764;SDS011;6953;48.810;9.204;2022-12-11T10:51:58;0.50;;;0.50;;
13764;SDS011;6953;48.810;9.204;2022-12-11T10:54:30;0.60;;;0.60;;
13764;SDS011;6953;48.810;9.204;2022-12-11T10:56:56;0.60;;;0.60;;
13764;SDS011;6953;48.810;9.204;2022-12-11T10:59:23;0.60;;;0.60;;
13764;SDS011;6953;48.810;9.204;2022-12-11T11:01:55;0.60;;;0.60;;
13764;SDS011;6953;48.810;9.204;2022-12-11T11:04:27;0.70;;;0.70;;
13764;SDS011;6953;48.810;9.204;2022-12-11T11:07:17;0.60;;;0.60;;
13764;SDS011;6953;48.810;9.204;2022-12-11T11:09:45;0.70;;;0.70;;
13764;SDS011;6953;48.810;9.204;2022-12-11T11:12:21;0.60;;;0.60;;
13764;SDS011;6953;48.810;9.204;2022-12-11T11:15:00;0.80;;;0.80;;
13764;SDS011;6953;48.810;9.204;2022-12-11T11:17:30;0.70;;;0.70;;
13764;SDS011;6953;48.810;9.204;2022-12-11T11:19:58;0.60;;;0.60;;
13764;SDS011;6953;48.810;9.204;2022-12-11T11:22:29;0.60;;;0.60;;
13764;SDS011;6953;48.810;9.204;2022-12-11T11:24:57;0.60;;;0.60;;
13764;SDS011;6953;48.810;9.204;2022-12-11T11:29:51;0.80;;;0.80;;
13764;SDS011;6953;48.810;9.204;2022-12-11T11:32:21;0.70;;;0.70;;
13764;SDS011;6953;48.810;9.204;2022-12-11T11:34:48;0.57;;;0.57;;
13764;SDS011;6953;48.810;9.204;2022-12-11T11:37:21;0.67;;;0.67;;
13764;SDS011;6953;48.810;9.204;2022-12-11T11:42:46;0.60;;;0.60;;
13764;SDS011;6953;48.810;9.204;2022-12-11T11:45:21;0.70;;;0.70;;
13764;SDS011;6953;48.810;9.204;2022-12-11T11:50:45;0.70;;;0.70;;
13764;SDS011;6953;48.810;9.204;2022-12-11T12:01:20;0.57;;;0.57;;
13764;SDS011;6953;48.810;9.204;2022-12-11T12:03:46;0.70;;;0.70;;
13764;SDS011;6953;48.810;9.204;2022-12-11T12:14:31;0.60;;;0.60;;
13764;SDS011;6953;48.810;9.204;2022-12-11T12:22:43;0.60;;;0.60;;
13764;SDS011;6953;48.810;9.204;2022-12-11T12:25:18;0.70;;;0.70;;
13764;SDS011;6953;48.810;9.204;2022-12-11T12:30:39;0.63;;;0.63;;
13764;SDS011;6953;48.810;9.204;2022-12-11T12:36:18;0.70;;;0.70;;
13764;SDS011;6953;48.810;9.204;2022-12-11T12:39:00;0.70;;;0.70;;
13764;SDS011;6953;48.810;9.204;2022-12-11T12:47:01;0.70;;;0.70;;
13764;SDS011;6953;48.810;9.204;2022-12-11T12:52:28;0.60;;;0.60;;
13764;SDS011;6953;48.810;9.204;2022-12-11T12:55:01;0.70;;;0.70;;
13764;SDS011;6953;48.810;9.204;2022-12-11T12:57:44;0.60;;;0.60;;
13764;SDS011;6953;48.810;9.204;2022-12-11T13:00:12;0.50;;;0.50;;
13764;SDS011;6953;48.810;9.204;2022-12-11T13:02:46;0.70;;;0.70;;
13764;SDS011;6953;48.810;9.204;2022-12-11T13:05:29;0.70;;;0.70;;
13764;SDS011;6953;48.810;9.204;2022-12-11T13:07:59;0.53;;;0.53;;
13764;SDS011;6953;48.810;9.204;2022-12-11T13:12:56;0.70;;;0.70;;
13764;SDS011;6953;48.810;9.204;2022-12-11T13:15:32;0.60;;;0.60;;
13764;SDS011;6953;48.810;9.204;2022-12-11T13:18:02;0.60;;;0.60;;
13764;SDS011;6953;48.810;9.204;2022-12-11T13:20:50;0.70;;;0.70;;
13764;SDS011;6953;48.810;9.204;2022-12-11T13:23:17;0.70;;;0.70;;
13764;SDS011;6953;48.810;9.204;2022-12-11T13:25:51;0.70;;;0.70;;
13764;SDS011;6953;48.810;9.204;2022-12-11T13:28:23;0.60;;;0.60;;
13764;SDS011;6953;48.810;9.204;2022-12-11T13:33:43;0.70;;;0.70;;
13764;SDS011;6953;48.810;9.204;2022-12-11T13:38:37;0.73;;;0.73;;
13764;SDS011;6953;48.810;9.204;2022-12-11T13:41:11;0.90;;;0.90;;
13764;SDS011;6953;48.810;9.204;2022-12-11T13:43:37;0.90;;;0.90;;
13764;SDS011;6953;48.810;9.204;2022-12-11T13:46:09;0.80;;;0.80;;
13764;SDS011;6953;48.810;9.204;2022-12-11T13:48:47;0.60;;;0.60;;
13764;SDS011;6953;48.810;9.204;2022-12-11T13:51:19;0.60;;;0.60;;
13764;SDS011;6953;48.810;9.204;2022-12-11T13:53:46;0.73;;;0.73;;
13764;SDS011;6953;48.810;9.204;2022-12-11T13:56:15;0.60;;;0.60;;
13764;SDS011;6953;48.810;9.204;2022-12-11T13:58:42;0.73;;;0.73;;
13764;SDS011;6953;48.810;9.204;2022-12-11T14:01:09;0.70;;;0.70;;
13764;SDS011;6953;48.810;9.204;2022-12-11T14:03:59;0.77;;;0.77;;
13764;SDS011;6953;48.810;9.204;2022-12-11T14:06:27;0.60;;;0.60;;
13764;SDS011;6953;48.810;9.204;2022-12-11T14:08:55;0.80;;;0.80;;
13764;SDS011;6953;48.810;9.204;2022-12-11T14:11:24;0.90;;;0.90;;
13764;SDS011;6953;48.810;9.204;2022-12-11T14:13:52;0.80;;;0.80;;
13764;SDS011;6953;48.810;9.204;2022-12-11T14:16:22;0.70;;;0.70;;
13764;SDS011;6953;48.810;9.204;2022-12-11T14:18:49;0.80;;;0.80;;
13764;SDS011;6953;48.810;9.204;2022-12-11T14:21:20;0.90;;;0.90;;
13764;SDS011;6953;48.810;9.204;2022-12-11T14:23:50;0.90;;;0.90;;
13764;SDS011;6953;48.810;9.204;2022-12-11T14:26:48;0.80;;;0.80;;
13764;SDS011;6953;48.810;9.204;2022-12-11T14:29:23;0.80;;;0.80;;
13764;SDS011;6953;48.810;9.204;2022-12-11T14:31:51;0.80;;;0.80;;
13764;SDS011;6953;48.810;9.204;2022-12-11T14:34:40;0.80;;;0.80;;
13764;SDS011;6953;48.810;9.204;2022-12-11T14:37:08;0.70;;;0.70;;
13764;SDS011;6953;48.810;9.204;2022-12-11T14:42:26;0.80;;;0.80;;
13764;SDS011;6953;48.810;9.204;2022-12-11T14:45:06;0.80;;;0.80;;
13764;SDS011;6953;48.810;9.204;2022-12-11T14:47:41;0.80;;;0.80;;
13764;SDS011;6953;48.810;9.204;2022-12-11T14:52:48;0.90;;;0.90;;
13764;SDS011;6953;48.810;9.204;2022-12-11T14:55:25;0.87;;;0.87;;
13764;SDS011;6953;48.810;9.204;2022-12-11T14:57:53;0.87;;;0.87;;
13764;SDS011;6953;48.810;9.204;2022-12-11T15:00:27;0.90;;;0.90;;
13764;SDS011;6953;48.810;9.204;2022-12-11T15:05:49;0.80;;;0.80;;
13764;SDS011;6953;48.810;9.204;2022-12-11T15:08:20;0.90;;;0.90;;
13764;SDS011;6953;48.810;9.204;2022-12-11T15:11:00;0.80;;;0.80;;
13764;SDS011;6953;48.810;9.204;2022-12-11T15:13:26;0.80;;;0.80;;
13764;SDS011;6953;48.810;9.204;2022-12-11T15:15:51;0.80;;;0.80;;
13764;SDS011;6953;48.810;9.204;2022-12-11T15:18:20;0.90;;;0.90;;
13764;SDS011;6953;48.810;9.204;2022-12-11T15:20:49;0.80;;;0.80;;
13764;SDS011;6953;48.810;9.204;2022-12-11T15:23:20;0.80;;;0.80;;
13764;SDS011;6953;48.810;9.204;2022-12-11T15:25:49;0.73;;;0.73;;
13764;SDS011;6953;48.810;9.204;2022-12-11T15:28:27;0.90;;;0.90;;
13764;SDS011;6953;48.810;9.204;2022-12-11T15:30:59;0.90;;;0.90;;
13764;SDS011;6953;48.810;9.204;2022-12-11T15:33:26;0.80;;;0.80;;
13764;SDS011;6953;48.810;9.204;2022-12-11T15:35:59;0.80;;;0.80;;
13764;SDS011;6953;48.810;9.204;2022-12-11T15:38:45;0.90;;;0.90;;
13764;SDS011;6953;48.810;9.204;2022-12-11T15:41:15;1.00;;;1.00;;
13764;SDS011;6953;48.810;9.204;2022-12-11T15:43:44;0.90;;;0.90;;
13764;SDS011;6953;48.810;9.204;2022-12-11T15:46:11;0.87;;;0.87;;
13764;SDS011;6953;48.810;9.204;2022-12-11T15:48:36;0.80;;;0.80;;
13764;SDS011;6953;48.810;9.204;2022-12-11T15:51:01;0.70;;;0.70;;
13764;SDS011;6953;48.810;9.204;2022-12-11T15:53:27;0.73;;;0.73;;
13764;SDS011;6953;48.810;9.204;2022-12-11T15:55:53;0.80;;;0.80;;
13764;SDS011;6953;48.810;9.204;2022-12-11T15:58:20;0.70;;;0.70;;
13764;SDS011;6953;48.810;9.204;2022-12-11T16:00:47;0.77;;;0.77;;
13764;SDS011;6953;48.810;9.204;2022-12-11T16:03:13;0.80;;;0.80;;
13764;SDS011;6953;48.810;9.204;2022-12-11T16:05:40;0.80;;;0.80;;
13764;SDS011;6953;48.810;9.204;2022-12-11T16:08:06;1.00;;;1.00;;
13764;SDS011;6953;48.810;9.204;2022-12-11T16:10:36;0.70;;;0.70;;
13764;SDS011;6953;48.810;9.204;2022-12-11T16:13:01;0.90;;;0.90;;
13764;SDS011;6953;48.810;9.204;2022-12-11T16:15:27;0.80;;;0.80;;
13764;SDS011;6953;48.810;9.204;2022-12-11T16:17:59;0.90;;;0.90;;
13764;SDS011;6953;48.810;9.204;2022-12-11T16:20:26;0.90;;;0.90;;
13764;SDS011;6953;48.810;9.204;2022-12-11T16:22:52;0.77;;;0.77;;
13764;SDS011;6953;48.810;9.204;2022-12-11T16:25:17;0.90;;;0.90;;
13764;SDS011;6953;48.810;9.204;2022-12-11T16:27:43;0.80;;;0.80;;
13764;SDS011;6953;48.810;9.204;2022-12-11T16:30:08;0.90;;;0.90;;
13764;SDS011;6953;48.810;9.204;2022-12-11T16:32:35;1.00;;;1.00;;
13764;SDS011;6953;48.810;9.204;2022-12-11T16:35:00;0.90;;;0.90;;
13764;SDS011;6953;48.810;9.204;2022-12-11T16:37:25;0.83;;;0.83;;
13764;SDS011;6953;48.810;9.204;2022-12-11T16:39:51;0.70;;;0.70;;
13764;SDS011;6953;48.810;9.204;2022-12-11T16:42:16;0.70;;;0.70;;
13764;SDS011;6953;48.810;9.204;2022-12-11T16:44:42;0.80;;;0.80;;
13764;SDS011;6953;48.810;9.204;2022-12-11T16:47:07;0.83;;;0.83;;